sensor_id;sensor_type;location;lat;lon;timestamp;P1;durP1;ratioP1;P2;durP2;ratioP2
7985;SDS011;4038;42.612;23.066;2023-02-24T00:01:24;51.60;;;46.40;;
7985;SDS011;4038;42.612;23.066;2023-02-24T00:03:54;48.57;;;43.60;;
7985;SDS011;4038;42.612;23.066;2023-02-24T00:06:27;49.33;;;44.47;;
7985;SDS011;4038;42.612;23.066;2023-02-24T00:09:04;49.88;;;44.72;;
7985;SDS011;4038;42.612;23.066;2023-02-24T00:11:32;49.67;;;44.50;;
7985;SDS011;4038;42.612;23.066;2023-02-24T00:13:58;53.73;;;45.80;;
7985;SDS011;4038;42.612;23.066;2023-02-24T00:16:24;51.67;;;46.23;;
7985;SDS011;4038;42.612;23.066;2023-02-24T00:18:49;54.70;;;47.90;;
7985;SDS011;4038;42.612;23.066;2023-02-24T00:21:15;51.83;;;45.03;;
7985;SDS011;4038;42.612;23.066;2023-02-24T00:23:42;49.83;;;44.80;;
7985;SDS011;4038;42.612;23.066;2023-02-24T00:26:10;51.87;;;46.27;;
7985;SDS011;4038;42.612;23.066;2023-02-24T00:28:38;49.67;;;44.33;;
7985;SDS011;4038;42.612;23.066;2023-02-24T00:31:05;50.07;;;44.57;;
7985;SDS011;4038;42.612;23.066;2023-02-24T00:33:32;50.97;;;45.10;;
7985;SDS011;4038;42.612;23.066;2023-02-24T00:36:08;49.17;;;43.93;;
7985;SDS011;4038;42.612;23.066;2023-02-24T00:38:38;51.60;;;46.20;;
7985;SDS011;4038;42.612;23.066;2023-02-24T00:41:18;50.50;;;45.07;;
7985;SDS011;4038;42.612;23.066;2023-02-24T00:43:46;50.53;;;45.13;;
7985;SDS011;4038;42.612;23.066;2023-02-24T00:48:41;49.63;;;44.37;;
7985;SDS011;4038;42.612;23.066;2023-02-24T00:51:10;50.77;;;45.57;;
7985;SDS011;4038;42.612;23.066;2023-02-24T00:53:37;51.23;;;45.73;;
7985;SDS011;4038;42.612;23.066;2023-02-24T00:56:04;49.00;;;44.03;;
7985;SDS011;4038;42.612;23.066;2023-02-24T00:58:32;49.10;;;42.90;;
7985;SDS011;4038;42.612;23.066;2023-02-24T01:00:59;48.57;;;43.37;;
7985;SDS011;4038;42.612;23.066;2023-02-24T01:03:25;52.97;;;47.33;;
7985;SDS011;4038;42.612;23.066;2023-02-24T01:05:51;54.23;;;46.40;;
7985;SDS011;4038;42.612;23.066;2023-02-24T01:08:17;49.63;;;44.13;;
7985;SDS011;4038;42.612;23.066;2023-02-24T01:10:58;50.13;;;44.53;;
7985;SDS011;4038;42.612;23.066;2023-02-24T01:13:46;49.50;;;44.17;;
7985;SDS011;4038;42.612;23.066;2023-02-24T01:16:11;49.07;;;44.13;;
7985;SDS011;4038;42.612;23.066;2023-02-24T01:18:39;50.17;;;44.87;;
7985;SDS011;4038;42.612;23.066;2023-02-24T01:21:05;51.17;;;42.73;;
7985;SDS011;4038;42.612;23.066;2023-02-24T01:23:30;49.13;;;43.93;;
7985;SDS011;4038;42.612;23.066;2023-02-24T01:25:56;49.90;;;44.53;;
7985;SDS011;4038;42.612;23.066;2023-02-24T01:28:24;49.60;;;44.43;;
7985;SDS011;4038;42.612;23.066;2023-02-24T01:30:50;48.73;;;43.23;;
7985;SDS011;4038;42.612;23.066;2023-02-24T01:33:17;52.17;;;46.47;;
7985;SDS011;4038;42.612;23.066;2023-02-24T01:35:42;51.03;;;45.80;;
7985;SDS011;4038;42.612;23.066;2023-02-24T01:38:08;52.37;;;45.47;;
7985;SDS011;4038;42.612;23.066;2023-02-24T01:40:35;55.20;;;46.07;;
7985;SDS011;4038;42.612;23.066;2023-02-24T01:43:00;61.03;;;48.30;;
7985;SDS011;4038;42.612;23.066;2023-02-24T01:45:27;56.20;;;49.57;;
7985;SDS011;4038;42.612;23.066;2023-02-24T01:47:56;54.83;;;46.83;;
7985;SDS011;4038;42.612;23.066;2023-02-24T01:50:26;57.63;;;48.63;;
7985;SDS011;4038;42.612;23.066;2023-02-24T01:52:54;52.50;;;46.90;;
7985;SDS011;4038;42.612;23.066;2023-02-24T01:55:42;53.13;;;47.37;;
7985;SDS011;4038;42.612;23.066;2023-02-24T01:58:16;53.00;;;47.37;;
7985;SDS011;4038;42.612;23.066;2023-02-24T02:00:46;51.80;;;46.53;;
7985;SDS011;4038;42.612;23.066;2023-02-24T02:03:15;51.70;;;46.20;;
7985;SDS011;4038;42.612;23.066;2023-02-24T02:05:44;51.43;;;46.10;;
7985;SDS011;4038;42.612;23.066;2023-02-24T02:08:12;52.60;;;44.73;;
7985;SDS011;4038;42.612;23.066;2023-02-24T02:10:40;48.87;;;43.80;;
7985;SDS011;4038;42.612;23.066;2023-02-24T02:13:08;48.60;;;43.57;;
7985;SDS011;4038;42.612;23.066;2023-02-24T02:15:35;48.63;;;43.53;;
7985;SDS011;4038;42.612;23.066;2023-02-24T02:18:16;50.67;;;45.47;;
7985;SDS011;4038;42.612;23.066;2023-02-24T02:34:51;55.90;;;45.90;;
7985;SDS011;4038;42.612;23.066;2023-02-24T02:40:11;52.07;;;46.17;;
7985;SDS011;4038;42.612;23.066;2023-02-24T02:43:01;50.77;;;45.47;;
7985;SDS011;4038;42.612;23.066;2023-02-24T02:48:27;49.97;;;44.63;;
7985;SDS011;4038;42.612;23.066;2023-02-24T02:51:05;49.73;;;44.47;;
7985;SDS011;4038;42.612;23.066;2023-02-24T02:54:21;47.47;;;42.40;;
7985;SDS011;4038;42.612;23.066;2023-02-24T02:58:58;51.50;;;45.10;;
7985;SDS011;4038;42.612;23.066;2023-02-24T03:01:28;49.70;;;44.30;;
7985;SDS011;4038;42.612;23.066;2023-02-24T03:03:59;47.40;;;42.33;;
7985;SDS011;4038;42.612;23.066;2023-02-24T03:06:36;52.77;;;43.87;;
7985;SDS011;4038;42.612;23.066;2023-02-24T03:09:08;50.17;;;44.97;;
7985;SDS011;4038;42.612;23.066;2023-02-24T03:11:47;49.43;;;44.10;;
7985;SDS011;4038;42.612;23.066;2023-02-24T03:14:19;48.90;;;41.83;;
7985;SDS011;4038;42.612;23.066;2023-02-24T03:16:48;51.27;;;44.63;;
7985;SDS011;4038;42.612;23.066;2023-02-24T03:19:16;47.93;;;42.73;;
7985;SDS011;4038;42.612;23.066;2023-02-24T03:21:45;50.57;;;44.50;;
7985;SDS011;4038;42.612;23.066;2023-02-24T03:24:22;53.33;;;46.50;;
7985;SDS011;4038;42.612;23.066;2023-02-24T03:26:52;57.87;;;50.30;;
7985;SDS011;4038;42.612;23.066;2023-02-24T03:29:33;53.63;;;46.60;;
7985;SDS011;4038;42.612;23.066;2023-02-24T03:34:49;55.30;;;46.77;;
7985;SDS011;4038;42.612;23.066;2023-02-24T03:37:33;53.10;;;46.70;;
7985;SDS011;4038;42.612;23.066;2023-02-24T03:40:01;51.57;;;45.97;;
7985;SDS011;4038;42.612;23.066;2023-02-24T03:42:37;57.77;;;48.93;;
7985;SDS011;4038;42.612;23.066;2023-02-24T03:45:06;51.77;;;45.87;;
7985;SDS011;4038;42.612;23.066;2023-02-24T03:47:33;52.23;;;46.53;;
7985;SDS011;4038;42.612;23.066;2023-02-24T03:49:59;54.73;;;47.00;;
7985;SDS011;4038;42.612;23.066;2023-02-24T03:52:30;55.50;;;48.63;;
7985;SDS011;4038;42.612;23.066;2023-02-24T03:55:40;52.67;;;46.93;;
7985;SDS011;4038;42.612;23.066;2023-02-24T03:58:18;48.50;;;43.37;;
7985;SDS011;4038;42.612;23.066;2023-02-24T04:01:21;43.53;;;39.03;;
7985;SDS011;4038;42.612;23.066;2023-02-24T04:04:18;43.20;;;38.63;;
7985;SDS011;4038;42.612;23.066;2023-02-24T04:07:13;41.53;;;37.13;;
7985;SDS011;4038;42.612;23.066;2023-02-24T04:15:30;41.00;;;36.73;;
7985;SDS011;4038;42.612;23.066;2023-02-24T04:18:05;43.00;;;38.50;;
7985;SDS011;4038;42.612;23.066;2023-02-24T04:20:39;41.17;;;36.97;;
7985;SDS011;4038;42.612;23.066;2023-02-24T04:23:10;43.40;;;39.03;;
7985;SDS011;4038;42.612;23.066;2023-02-24T04:25:42;42.70;;;38.17;;
7985;SDS011;4038;42.612;23.066;2023-02-24T04:28:11;42.80;;;38.10;;
7985;SDS011;4038;42.612;23.066;2023-02-24T04:30:39;43.57;;;38.73;;
7985;SDS011;4038;42.612;23.066;2023-02-24T04:33:07;41.93;;;37.70;;
7985;SDS011;4038;42.612;23.066;2023-02-24T04:35:34;40.73;;;36.73;;
7985;SDS011;4038;42.612;23.066;2023-02-24T04:37:59;42.90;;;38.60;;
7985;SDS011;4038;42.612;23.066;2023-02-24T04:40:25;39.10;;;35.38;;
7985;SDS011;4038;42.612;23.066;2023-02-24T04:42:51;36.85;;;32.97;;
7985;SDS011;4038;42.612;23.066;2023-02-24T04:45:19;36.97;;;33.50;;
7985;SDS011;4038;42.612;23.066;2023-02-24T04:47:47;35.10;;;31.83;;
7985;SDS011;4038;42.612;23.066;2023-02-24T04:50:15;33.60;;;30.10;;
7985;SDS011;4038;42.612;23.066;2023-02-24T04:52:50;33.10;;;30.00;;
7985;SDS011;4038;42.612;23.066;2023-02-24T04:55:19;33.17;;;30.07;;
7985;SDS011;4038;42.612;23.066;2023-02-24T04:57:47;30.13;;;27.53;;
7985;SDS011;4038;42.612;23.066;2023-02-24T05:00:13;32.83;;;29.87;;
7985;SDS011;4038;42.612;23.066;2023-02-24T05:02:47;31.17;;;28.27;;
7985;SDS011;4038;42.612;23.066;2023-02-24T05:05:14;31.47;;;28.70;;
7985;SDS011;4038;42.612;23.066;2023-02-24T05:07:49;30.30;;;27.30;;
7985;SDS011;4038;42.612;23.066;2023-02-24T05:10:36;30.60;;;27.70;;
7985;SDS011;4038;42.612;23.066;2023-02-24T05:13:03;30.03;;;27.40;;
7985;SDS011;4038;42.612;23.066;2023-02-24T05:15:31;30.97;;;28.10;;
7985;SDS011;4038;42.612;23.066;2023-02-24T05:18:00;32.60;;;29.33;;
7985;SDS011;4038;42.612;23.066;2023-02-24T05:20:34;30.20;;;27.33;;
7985;SDS011;4038;42.612;23.066;2023-02-24T05:23:23;32.03;;;29.03;;
7985;SDS011;4038;42.612;23.066;2023-02-24T05:25:55;31.77;;;28.77;;
7985;SDS011;4038;42.612;23.066;2023-02-24T05:28:22;34.13;;;30.97;;
7985;SDS011;4038;42.612;23.066;2023-02-24T05:30:49;33.70;;;30.50;;
7985;SDS011;4038;42.612;23.066;2023-02-24T05:33:15;34.37;;;31.07;;
7985;SDS011;4038;42.612;23.066;2023-02-24T05:35:46;36.33;;;32.60;;
7985;SDS011;4038;42.612;23.066;2023-02-24T05:38:12;36.13;;;32.53;;
7985;SDS011;4038;42.612;23.066;2023-02-24T05:40:38;36.00;;;32.40;;
7985;SDS011;4038;42.612;23.066;2023-02-24T05:43:10;35.83;;;32.33;;
7985;SDS011;4038;42.612;23.066;2023-02-24T05:45:39;35.40;;;31.70;;
7985;SDS011;4038;42.612;23.066;2023-02-24T05:48:07;35.63;;;32.30;;
7985;SDS011;4038;42.612;23.066;2023-02-24T05:50:33;35.47;;;32.07;;
7985;SDS011;4038;42.612;23.066;2023-02-24T05:52:58;34.33;;;31.00;;
7985;SDS011;4038;42.612;23.066;2023-02-24T05:55:23;34.40;;;31.00;;
7985;SDS011;4038;42.612;23.066;2023-02-24T05:57:49;35.83;;;32.13;;
7985;SDS011;4038;42.612;23.066;2023-02-24T06:00:14;33.83;;;30.53;;
7985;SDS011;4038;42.612;23.066;2023-02-24T06:02:41;36.93;;;31.93;;
7985;SDS011;4038;42.612;23.066;2023-02-24T06:05:14;34.53;;;31.07;;
7985;SDS011;4038;42.612;23.066;2023-02-24T06:07:56;34.53;;;31.33;;
7985;SDS011;4038;42.612;23.066;2023-02-24T06:10:31;52.40;;;40.23;;
7985;SDS011;4038;42.612;23.066;2023-02-24T06:12:58;45.70;;;39.50;;
7985;SDS011;4038;42.612;23.066;2023-02-24T06:15:26;53.13;;;43.50;;
7985;SDS011;4038;42.612;23.066;2023-02-24T06:17:52;43.00;;;37.70;;
7985;SDS011;4038;42.612;23.066;2023-02-24T06:20:22;35.17;;;31.70;;
7985;SDS011;4038;42.612;23.066;2023-02-24T06:22:50;34.23;;;30.77;;
7985;SDS011;4038;42.612;23.066;2023-02-24T06:25:18;33.63;;;30.13;;
7985;SDS011;4038;42.612;23.066;2023-02-24T06:27:45;33.97;;;30.40;;
7985;SDS011;4038;42.612;23.066;2023-02-24T06:30:17;31.33;;;28.43;;
7985;SDS011;4038;42.612;23.066;2023-02-24T06:32:43;33.67;;;30.40;;
7985;SDS011;4038;42.612;23.066;2023-02-24T06:35:09;33.17;;;30.03;;
7985;SDS011;4038;42.612;23.066;2023-02-24T06:37:36;33.63;;;30.43;;
7985;SDS011;4038;42.612;23.066;2023-02-24T06:40:03;34.33;;;30.80;;
7985;SDS011;4038;42.612;23.066;2023-02-24T06:42:39;34.87;;;31.57;;
7985;SDS011;4038;42.612;23.066;2023-02-24T06:45:09;36.23;;;32.70;;
7985;SDS011;4038;42.612;23.066;2023-02-24T06:47:35;36.17;;;32.40;;
7985;SDS011;4038;42.612;23.066;2023-02-24T06:50:01;39.00;;;35.00;;
7985;SDS011;4038;42.612;23.066;2023-02-24T06:52:30;40.03;;;35.77;;
7985;SDS011;4038;42.612;23.066;2023-02-24T06:54:55;37.07;;;33.37;;
7985;SDS011;4038;42.612;23.066;2023-02-24T06:57:21;38.83;;;34.80;;
7985;SDS011;4038;42.612;23.066;2023-02-24T06:59:47;37.00;;;33.40;;
7985;SDS011;4038;42.612;23.066;2023-02-24T07:02:13;39.07;;;34.83;;
7985;SDS011;4038;42.612;23.066;2023-02-24T07:04:38;37.87;;;33.70;;
7985;SDS011;4038;42.612;23.066;2023-02-24T07:07:10;36.20;;;32.40;;
7985;SDS011;4038;42.612;23.066;2023-02-24T07:09:38;38.00;;;33.07;;
7985;SDS011;4038;42.612;23.066;2023-02-24T07:12:05;40.20;;;34.67;;
7985;SDS011;4038;42.612;23.066;2023-02-24T07:14:32;51.75;;;36.22;;
7985;SDS011;4038;42.612;23.066;2023-02-24T07:16:57;38.75;;;33.67;;
7985;SDS011;4038;42.612;23.066;2023-02-24T07:19:25;44.53;;;35.63;;
7985;SDS011;4038;42.612;23.066;2023-02-24T07:21:56;38.90;;;34.90;;
7985;SDS011;4038;42.612;23.066;2023-02-24T07:24:28;39.58;;;35.45;;
7985;SDS011;4038;42.612;23.066;2023-02-24T07:27:07;37.50;;;33.73;;
7985;SDS011;4038;42.612;23.066;2023-02-24T07:29:35;41.13;;;36.73;;
7985;SDS011;4038;42.612;23.066;2023-02-24T07:32:02;40.17;;;35.90;;
7985;SDS011;4038;42.612;23.066;2023-02-24T07:34:30;38.10;;;34.43;;
7985;SDS011;4038;42.612;23.066;2023-02-24T07:36:57;40.57;;;36.30;;
7985;SDS011;4038;42.612;23.066;2023-02-24T07:39:23;38.73;;;35.00;;
7985;SDS011;4038;42.612;23.066;2023-02-24T07:41:50;37.63;;;34.07;;
7985;SDS011;4038;42.612;23.066;2023-02-24T07:44:17;38.00;;;34.10;;
7985;SDS011;4038;42.612;23.066;2023-02-24T07:46:44;38.77;;;35.13;;
7985;SDS011;4038;42.612;23.066;2023-02-24T07:49:11;38.93;;;34.93;;
7985;SDS011;4038;42.612;23.066;2023-02-24T07:51:39;36.97;;;33.27;;
7985;SDS011;4038;42.612;23.066;2023-02-24T07:54:06;39.17;;;35.57;;
7985;SDS011;4038;42.612;23.066;2023-02-24T07:56:32;39.70;;;36.03;;
7985;SDS011;4038;42.612;23.066;2023-02-24T07:59:00;40.67;;;36.67;;
7985;SDS011;4038;42.612;23.066;2023-02-24T08:01:28;40.42;;;36.63;;
7985;SDS011;4038;42.612;23.066;2023-02-24T08:04:03;39.97;;;36.07;;
7985;SDS011;4038;42.612;23.066;2023-02-24T08:06:33;40.53;;;36.77;;
7985;SDS011;4038;42.612;23.066;2023-02-24T08:09:06;37.17;;;33.75;;
7985;SDS011;4038;42.612;23.066;2023-02-24T08:11:45;37.93;;;34.53;;
7985;SDS011;4038;42.612;23.066;2023-02-24T08:14:16;33.75;;;30.77;;
7985;SDS011;4038;42.612;23.066;2023-02-24T08:16:44;38.22;;;34.90;;
7985;SDS011;4038;42.612;23.066;2023-02-24T08:19:13;39.03;;;35.27;;
7985;SDS011;4038;42.612;23.066;2023-02-24T08:21:45;40.90;;;37.00;;
7985;SDS011;4038;42.612;23.066;2023-02-24T08:24:14;39.50;;;36.00;;
7985;SDS011;4038;42.612;23.066;2023-02-24T08:26:48;41.00;;;37.10;;
7985;SDS011;4038;42.612;23.066;2023-02-24T08:29:34;39.10;;;35.67;;
7985;SDS011;4038;42.612;23.066;2023-02-24T08:32:19;40.53;;;36.70;;
7985;SDS011;4038;42.612;23.066;2023-02-24T08:34:48;40.58;;;36.55;;
7985;SDS011;4038;42.612;23.066;2023-02-24T08:37:14;38.83;;;35.13;;
7985;SDS011;4038;42.612;23.066;2023-02-24T08:39:40;39.35;;;35.78;;
7985;SDS011;4038;42.612;23.066;2023-02-24T08:42:07;43.97;;;39.90;;
7985;SDS011;4038;42.612;23.066;2023-02-24T08:44:38;40.08;;;36.28;;
7985;SDS011;4038;42.612;23.066;2023-02-24T08:47:04;43.03;;;38.95;;
7985;SDS011;4038;42.612;23.066;2023-02-24T08:49:31;41.05;;;37.25;;
7985;SDS011;4038;42.612;23.066;2023-02-24T08:51:57;40.10;;;36.25;;
7985;SDS011;4038;42.612;23.066;2023-02-24T08:54:26;40.40;;;36.83;;
7985;SDS011;4038;42.612;23.066;2023-02-24T08:56:56;39.22;;;35.72;;
7985;SDS011;4038;42.612;23.066;2023-02-24T08:59:32;36.95;;;33.85;;
7985;SDS011;4038;42.612;23.066;2023-02-24T09:02:18;33.75;;;30.95;;
7985;SDS011;4038;42.612;23.066;2023-02-24T09:04:52;31.63;;;29.02;;
7985;SDS011;4038;42.612;23.066;2023-02-24T09:07:21;32.90;;;30.00;;
7985;SDS011;4038;42.612;23.066;2023-02-24T09:09:48;35.20;;;32.20;;
7985;SDS011;4038;42.612;23.066;2023-02-24T09:12:15;32.67;;;30.00;;
7985;SDS011;4038;42.612;23.066;2023-02-24T09:14:49;32.05;;;29.45;;
7985;SDS011;4038;42.612;23.066;2023-02-24T09:17:19;32.70;;;29.98;;
7985;SDS011;4038;42.612;23.066;2023-02-24T09:20:04;30.42;;;28.02;;
7985;SDS011;4038;42.612;23.066;2023-02-24T09:22:49;30.48;;;27.90;;
7985;SDS011;4038;42.612;23.066;2023-02-24T09:25:27;32.95;;;30.40;;
7985;SDS011;4038;42.612;23.066;2023-02-24T09:28:06;33.13;;;30.30;;
7985;SDS011;4038;42.612;23.066;2023-02-24T09:30:36;30.48;;;27.65;;
7985;SDS011;4038;42.612;23.066;2023-02-24T09:33:19;29.88;;;27.48;;
7985;SDS011;4038;42.612;23.066;2023-02-24T09:38:27;29.67;;;27.13;;
7985;SDS011;4038;42.612;23.066;2023-02-24T09:41:22;30.38;;;28.02;;
7985;SDS011;4038;42.612;23.066;2023-02-24T09:44:04;33.60;;;30.98;;
7985;SDS011;4038;42.612;23.066;2023-02-24T09:46:44;32.50;;;29.77;;
7985;SDS011;4038;42.612;23.066;2023-02-24T09:49:18;31.80;;;29.20;;
7985;SDS011;4038;42.612;23.066;2023-02-24T09:51:50;31.48;;;28.83;;
7985;SDS011;4038;42.612;23.066;2023-02-24T09:54:28;31.55;;;29.15;;
7985;SDS011;4038;42.612;23.066;2023-02-24T09:56:59;32.70;;;30.15;;
7985;SDS011;4038;42.612;23.066;2023-02-24T10:08:32;34.45;;;31.42;;
7985;SDS011;4038;42.612;23.066;2023-02-24T10:11:00;32.30;;;29.80;;
7985;SDS011;4038;42.612;23.066;2023-02-24T10:13:32;34.72;;;31.95;;
7985;SDS011;4038;42.612;23.066;2023-02-24T10:16:02;31.75;;;28.98;;
7985;SDS011;4038;42.612;23.066;2023-02-24T10:29:25;33.95;;;31.25;;
7985;SDS011;4038;42.612;23.066;2023-02-24T10:35:15;33.85;;;31.05;;
7985;SDS011;4038;42.612;23.066;2023-02-24T10:37:42;31.35;;;29.02;;
7985;SDS011;4038;42.612;23.066;2023-02-24T10:40:09;31.45;;;28.67;;
7985;SDS011;4038;42.612;23.066;2023-02-24T10:42:37;32.65;;;30.13;;
7985;SDS011;4038;42.612;23.066;2023-02-24T10:45:14;31.63;;;29.10;;
7985;SDS011;4038;42.612;23.066;2023-02-24T10:47:41;33.05;;;30.45;;
7985;SDS011;4038;42.612;23.066;2023-02-24T10:50:18;32.70;;;30.02;;
7985;SDS011;4038;42.612;23.066;2023-02-24T10:52:44;31.27;;;28.60;;
7985;SDS011;4038;42.612;23.066;2023-02-24T10:58:10;31.05;;;28.67;;
7985;SDS011;4038;42.612;23.066;2023-02-24T11:00:47;33.40;;;30.27;;
7985;SDS011;4038;42.612;23.066;2023-02-24T11:03:28;32.53;;;29.92;;
7985;SDS011;4038;42.612;23.066;2023-02-24T11:06:02;30.77;;;28.08;;
7985;SDS011;4038;42.612;23.066;2023-02-24T11:08:29;32.03;;;29.02;;
7985;SDS011;4038;42.612;23.066;2023-02-24T11:11:14;32.00;;;29.40;;
7985;SDS011;4038;42.612;23.066;2023-02-24T11:14:05;32.97;;;29.75;;
7985;SDS011;4038;42.612;23.066;2023-02-24T11:16:58;30.70;;;28.30;;
7985;SDS011;4038;42.612;23.066;2023-02-24T11:22:11;31.58;;;28.80;;
7985;SDS011;4038;42.612;23.066;2023-02-24T11:24:38;31.98;;;29.08;;
7985;SDS011;4038;42.612;23.066;2023-02-24T11:27:04;30.90;;;28.30;;
7985;SDS011;4038;42.612;23.066;2023-02-24T11:41:07;30.25;;;27.55;;
7985;SDS011;4038;42.612;23.066;2023-02-24T11:43:41;32.33;;;29.60;;
7985;SDS011;4038;42.612;23.066;2023-02-24T11:46:20;29.85;;;27.20;;
7985;SDS011;4038;42.612;23.066;2023-02-24T11:48:51;30.75;;;28.05;;
7985;SDS011;4038;42.612;23.066;2023-02-24T11:51:23;29.67;;;27.27;;
7985;SDS011;4038;42.612;23.066;2023-02-24T11:53:59;29.58;;;27.00;;
7985;SDS011;4038;42.612;23.066;2023-02-24T11:56:33;30.55;;;27.85;;
7985;SDS011;4038;42.612;23.066;2023-02-24T12:04:39;30.60;;;28.02;;
7985;SDS011;4038;42.612;23.066;2023-02-24T12:09:59;30.10;;;27.60;;
7985;SDS011;4038;42.612;23.066;2023-02-24T12:17:53;30.48;;;27.95;;
7985;SDS011;4038;42.612;23.066;2023-02-24T12:20:47;28.00;;;25.55;;
7985;SDS011;4038;42.612;23.066;2023-02-24T12:25:48;37.50;;;34.10;;
7985;SDS011;4038;42.612;23.066;2023-02-24T12:31:01;39.20;;;35.50;;
7985;SDS011;4038;42.612;23.066;2023-02-24T12:33:37;36.08;;;33.05;;
7985;SDS011;4038;42.612;23.066;2023-02-24T12:36:13;35.47;;;32.42;;
7985;SDS011;4038;42.612;23.066;2023-02-24T12:47:08;29.52;;;27.13;;
7985;SDS011;4038;42.612;23.066;2023-02-24T12:58:02;30.95;;;28.27;;
7985;SDS011;4038;42.612;23.066;2023-02-24T13:00:50;31.52;;;29.00;;
7985;SDS011;4038;42.612;23.066;2023-02-24T13:06:39;31.20;;;28.65;;
7985;SDS011;4038;42.612;23.066;2023-02-24T13:09:25;31.95;;;29.42;;
7985;SDS011;4038;42.612;23.066;2023-02-24T13:14:45;30.00;;;27.52;;
7985;SDS011;4038;42.612;23.066;2023-02-24T13:19:39;29.20;;;26.90;;
7985;SDS011;4038;42.612;23.066;2023-02-24T13:24:36;30.27;;;27.67;;
7985;SDS011;4038;42.612;23.066;2023-02-24T13:30:21;25.95;;;23.60;;
7985;SDS011;4038;42.612;23.066;2023-02-24T13:32:57;28.05;;;25.60;;
7985;SDS011;4038;42.612;23.066;2023-02-24T13:35:41;27.88;;;25.63;;
7985;SDS011;4038;42.612;23.066;2023-02-24T13:38:20;28.10;;;25.73;;
7985;SDS011;4038;42.612;23.066;2023-02-24T13:40:49;29.20;;;25.92;;
7985;SDS011;4038;42.612;23.066;2023-02-24T13:43:22;27.67;;;24.77;;
7985;SDS011;4038;42.612;23.066;2023-02-24T13:45:56;28.40;;;26.30;;
7985;SDS011;4038;42.612;23.066;2023-02-24T13:51:32;29.65;;;27.13;;
7985;SDS011;4038;42.612;23.066;2023-02-24T13:56:54;27.88;;;25.67;;
7985;SDS011;4038;42.612;23.066;2023-02-24T14:02:29;28.50;;;26.00;;
7985;SDS011;4038;42.612;23.066;2023-02-24T14:05:07;26.98;;;24.65;;
7985;SDS011;4038;42.612;23.066;2023-02-24T14:07:44;27.65;;;25.13;;
7985;SDS011;4038;42.612;23.066;2023-02-24T14:10:16;28.88;;;26.60;;
7985;SDS011;4038;42.612;23.066;2023-02-24T14:12:46;28.50;;;25.90;;
7985;SDS011;4038;42.612;23.066;2023-02-24T14:15:14;27.90;;;25.60;;
7985;SDS011;4038;42.612;23.066;2023-02-24T14:17:52;28.30;;;25.95;;
7985;SDS011;4038;42.612;23.066;2023-02-24T14:20:20;27.30;;;25.00;;
7985;SDS011;4038;42.612;23.066;2023-02-24T14:25:23;27.45;;;24.92;;
7985;SDS011;4038;42.612;23.066;2023-02-24T14:27:53;28.00;;;25.70;;
7985;SDS011;4038;42.612;23.066;2023-02-24T14:32:49;27.33;;;24.98;;
7985;SDS011;4038;42.612;23.066;2023-02-24T14:35:33;27.05;;;24.77;;
7985;SDS011;4038;42.612;23.066;2023-02-24T14:38:02;26.52;;;24.33;;
7985;SDS011;4038;42.612;23.066;2023-02-24T14:40:28;27.75;;;25.02;;
7985;SDS011;4038;42.612;23.066;2023-02-24T14:42:54;27.80;;;25.50;;
7985;SDS011;4038;42.612;23.066;2023-02-24T14:45:23;27.52;;;25.17;;
7985;SDS011;4038;42.612;23.066;2023-02-24T14:47:51;29.17;;;25.95;;
7985;SDS011;4038;42.612;23.066;2023-02-24T14:50:18;28.95;;;26.23;;
7985;SDS011;4038;42.612;23.066;2023-02-24T14:55:44;30.25;;;25.90;;
7985;SDS011;4038;42.612;23.066;2023-02-24T15:00:57;28.00;;;25.40;;
7985;SDS011;4038;42.612;23.066;2023-02-24T15:03:36;28.10;;;25.52;;
7985;SDS011;4038;42.612;23.066;2023-02-24T15:06:12;28.90;;;26.50;;
7985;SDS011;4038;42.612;23.066;2023-02-24T15:08:51;28.55;;;25.90;;
7985;SDS011;4038;42.612;23.066;2023-02-24T15:11:30;27.77;;;25.05;;
7985;SDS011;4038;42.612;23.066;2023-02-24T15:13:57;27.85;;;25.42;;
7985;SDS011;4038;42.612;23.066;2023-02-24T15:16:44;27.45;;;25.15;;
7985;SDS011;4038;42.612;23.066;2023-02-24T15:21:55;31.33;;;28.63;;
7985;SDS011;4038;42.612;23.066;2023-02-24T15:24:25;29.92;;;27.17;;
7985;SDS011;4038;42.612;23.066;2023-02-24T15:26:54;28.08;;;25.85;;
7985;SDS011;4038;42.612;23.066;2023-02-24T15:29:23;28.48;;;26.08;;
7985;SDS011;4038;42.612;23.066;2023-02-24T15:31:52;27.08;;;24.73;;
7985;SDS011;4038;42.612;23.066;2023-02-24T15:34:20;28.27;;;25.55;;
7985;SDS011;4038;42.612;23.066;2023-02-24T15:36:49;30.17;;;27.38;;
7985;SDS011;4038;42.612;23.066;2023-02-24T15:39:20;28.75;;;26.02;;
7985;SDS011;4038;42.612;23.066;2023-02-24T15:41:48;29.45;;;26.45;;
7985;SDS011;4038;42.612;23.066;2023-02-24T15:46:54;30.08;;;27.17;;
7985;SDS011;4038;42.612;23.066;2023-02-24T15:49:20;28.05;;;25.65;;
7985;SDS011;4038;42.612;23.066;2023-02-24T15:51:47;29.25;;;26.88;;
7985;SDS011;4038;42.612;23.066;2023-02-24T15:54:14;29.23;;;26.65;;
7985;SDS011;4038;42.612;23.066;2023-02-24T15:56:47;30.98;;;27.80;;
7985;SDS011;4038;42.612;23.066;2023-02-24T15:59:14;28.38;;;25.88;;
7985;SDS011;4038;42.612;23.066;2023-02-24T16:01:41;30.58;;;27.95;;
7985;SDS011;4038;42.612;23.066;2023-02-24T16:04:07;30.23;;;27.50;;
7985;SDS011;4038;42.612;23.066;2023-02-24T16:06:36;32.13;;;29.00;;
7985;SDS011;4038;42.612;23.066;2023-02-24T16:09:14;28.35;;;26.15;;
7985;SDS011;4038;42.612;23.066;2023-02-24T16:11:42;28.60;;;26.17;;
7985;SDS011;4038;42.612;23.066;2023-02-24T16:14:12;28.75;;;26.08;;
7985;SDS011;4038;42.612;23.066;2023-02-24T16:16:40;29.02;;;26.20;;
7985;SDS011;4038;42.612;23.066;2023-02-24T16:19:06;29.08;;;26.67;;
7985;SDS011;4038;42.612;23.066;2023-02-24T16:21:38;30.67;;;27.77;;
7985;SDS011;4038;42.612;23.066;2023-02-24T16:24:04;31.13;;;27.90;;
7985;SDS011;4038;42.612;23.066;2023-02-24T16:26:30;29.05;;;26.08;;
7985;SDS011;4038;42.612;23.066;2023-02-24T16:28:59;28.38;;;25.75;;
7985;SDS011;4038;42.612;23.066;2023-02-24T16:31:25;30.80;;;27.90;;
7985;SDS011;4038;42.612;23.066;2023-02-24T16:33:51;31.23;;;28.42;;
7985;SDS011;4038;42.612;23.066;2023-02-24T16:36:17;30.55;;;27.55;;
7985;SDS011;4038;42.612;23.066;2023-02-24T16:38:43;27.63;;;25.02;;
7985;SDS011;4038;42.612;23.066;2023-02-24T16:41:10;29.67;;;26.45;;
7985;SDS011;4038;42.612;23.066;2023-02-24T16:43:36;29.95;;;26.80;;
7985;SDS011;4038;42.612;23.066;2023-02-24T16:46:03;31.15;;;26.95;;
7985;SDS011;4038;42.612;23.066;2023-02-24T16:48:30;29.77;;;26.83;;
7985;SDS011;4038;42.612;23.066;2023-02-24T16:51:01;30.10;;;27.60;;
7985;SDS011;4038;42.612;23.066;2023-02-24T16:53:28;33.88;;;30.52;;
7985;SDS011;4038;42.612;23.066;2023-02-24T16:55:54;32.20;;;29.35;;
7985;SDS011;4038;42.612;23.066;2023-02-24T16:58:19;30.35;;;27.80;;
7985;SDS011;4038;42.612;23.066;2023-02-24T17:00:47;32.55;;;29.55;;
7985;SDS011;4038;42.612;23.066;2023-02-24T17:05:49;32.63;;;29.58;;
7985;SDS011;4038;42.612;23.066;2023-02-24T17:08:16;31.85;;;28.73;;
7985;SDS011;4038;42.612;23.066;2023-02-24T17:10:41;30.20;;;27.48;;
7985;SDS011;4038;42.612;23.066;2023-02-24T17:13:12;30.30;;;27.63;;
7985;SDS011;4038;42.612;23.066;2023-02-24T17:15:38;31.13;;;28.42;;
7985;SDS011;4038;42.612;23.066;2023-02-24T17:18:04;30.02;;;27.42;;
7985;SDS011;4038;42.612;23.066;2023-02-24T17:20:30;29.27;;;26.42;;
7985;SDS011;4038;42.612;23.066;2023-02-24T17:22:56;28.85;;;26.25;;
7985;SDS011;4038;42.612;23.066;2023-02-24T17:25:22;28.25;;;25.90;;
7985;SDS011;4038;42.612;23.066;2023-02-24T17:27:50;30.35;;;27.65;;
7985;SDS011;4038;42.612;23.066;2023-02-24T17:30:18;28.75;;;25.88;;